createdAt,value
2022-12-18T00:00:06.941Z,76.75
2022-12-18T00:03:01.598Z,76.55
2022-12-18T00:05:29.398Z,76.47
2022-12-18T00:07:57.224Z,76.43
2022-12-18T00:10:24.809Z,75.09
2022-12-18T00:12:52.744Z,75.87
2022-12-18T00:15:20.861Z,76.02
2022-12-18T00:17:48.770Z,76.48
2022-12-18T00:20:16.470Z,75.60
2022-12-18T00:22:44.328Z,73.71
2022-12-18T00:25:11.823Z,73.23
2022-12-18T00:27:39.791Z,74.06
2022-12-18T00:30:08.074Z,73.86
2022-12-18T00:32:35.987Z,73.22
2022-12-18T00:35:03.928Z,70.34
2022-12-18T00:37:34.507Z,70.95
2022-12-18T00:40:02.497Z,70.13
2022-12-18T00:42:49.101Z,70.06
2022-12-18T00:45:16.870Z,70.77
2022-12-18T00:47:44.726Z,71.00
2022-12-18T00:50:12.456Z,71.90
2022-12-18T00:52:41.667Z,70.75
2022-12-18T00:55:09.696Z,70.58
2022-12-18T00:57:37.755Z,70.83
2022-12-18T01:00:08.191Z,70.63
2022-12-18T01:02:36.836Z,69.79
2022-12-18T01:05:05.422Z,69.65
2022-12-18T01:07:33.540Z,69.77
2022-12-18T01:10:01.141Z,70.71
2022-12-18T01:12:29.222Z,70.03
2022-12-18T01:14:56.801Z,71.01
2022-12-18T01:17:25.067Z,71.61
2022-12-18T01:19:52.619Z,70.93
2022-12-18T01:22:20.522Z,70.34
2022-12-18T01:24:48.237Z,70.53
2022-12-18T01:27:16.620Z,70.52
2022-12-18T01:29:44.337Z,70.65
2022-12-18T01:32:12.316Z,69.14
2022-12-18T01:34:40.011Z,68.79
2022-12-18T01:37:07.984Z,69.25
2022-12-18T01:39:35.702Z,70.46
2022-12-18T01:42:15.755Z,71.08
2022-12-18T01:45:28.562Z,71.43
2022-12-18T01:48:08.385Z,70.89
2022-12-18T01:50:43.863Z,71.28
2022-12-18T01:53:22.034Z,70.77
2022-12-18T01:55:56.573Z,70.61
2022-12-18T01:58:56.374Z,69.74
2022-12-18T02:01:25.821Z,70.60
2022-12-18T02:03:54.226Z,70.74
2022-12-18T02:06:40.879Z,69.85
2022-12-18T02:09:28.026Z,71.02
2022-12-18T02:12:22.061Z,70.36
2022-12-18T02:15:19.897Z,69.96
2022-12-18T02:17:57.648Z,70.46
2022-12-18T02:20:31.927Z,71.08
2022-12-18T02:23:19.920Z,71.72
2022-12-18T02:26:21.359Z,71.93
2022-12-18T02:29:23.784Z,71.41
2022-12-18T02:31:55.966Z,71.35
2022-12-18T02:34:30.276Z,70.57
2022-12-18T02:37:03.512Z,70.25
2022-12-18T02:39:34.104Z,70.60
2022-12-18T02:42:09.017Z,71.48
2022-12-18T02:44:46.354Z,71.38
2022-12-18T02:47:21.513Z,72.13
2022-12-18T02:50:54.181Z,71.31
2022-12-18T02:53:37.540Z,71.72
2022-12-18T02:56:13.582Z,71.89
2022-12-18T02:59:02.342Z,72.38
2022-12-18T03:02:22.534Z,72.90
2022-12-18T03:05:39.128Z,73.19
2022-12-18T03:08:18.662Z,73.68
2022-12-18T03:11:03.877Z,73.06
2022-12-18T03:13:47.955Z,72.95
2022-12-18T03:16:31.011Z,73.05
2022-12-18T03:19:22.738Z,72.62
2022-12-18T03:21:56.924Z,72.48
2022-12-18T03:24:30.693Z,72.73
2022-12-18T03:27:11.619Z,72.04
2022-12-18T03:30:08.202Z,71.94
2022-12-18T03:32:59.971Z,72.26
2022-12-18T03:35:34.839Z,72.31
2022-12-18T03:38:03.215Z,72.62
2022-12-18T03:40:46.030Z,72.53
2022-12-18T03:43:33.666Z,72.96
2022-12-18T03:46:18.559Z,72.74
2022-12-18T03:48:52.865Z,71.17
2022-12-18T03:52:08.620Z,70.63
2022-12-18T03:54:39.554Z,70.61
2022-12-18T03:57:29.485Z,70.07
2022-12-18T04:00:13.514Z,70.44
2022-12-18T04:02:58.161Z,70.03
2022-12-18T04:05:36.764Z,70.02
2022-12-18T04:08:05.481Z,71.04
2022-12-18T04:10:38.138Z,71.27
2022-12-18T04:13:05.742Z,71.53
2022-12-18T04:15:37.049Z,72.11
2022-12-18T04:18:06.723Z,71.78
2022-12-18T04:20:41.244Z,72.04
2022-12-18T04:23:09.521Z,71.46
2022-12-18T04:25:37.992Z,71.60
2022-12-18T04:28:09.089Z,71.27
2022-12-18T04:30:39.323Z,72.14
2022-12-18T04:33:20.250Z,71.38
2022-12-18T04:35:48.093Z,71.02
2022-12-18T04:38:15.758Z,70.98
2022-12-18T04:40:44.804Z,71.45
2022-12-18T04:43:21.738Z,70.83
2022-12-18T04:45:49.652Z,71.27
2022-12-18T04:48:17.281Z,71.12
2022-12-18T04:50:45.167Z,71.13
2022-12-18T04:53:12.656Z,71.39
2022-12-18T04:55:40.555Z,71.03
2022-12-18T04:58:08.068Z,71.11
2022-12-18T05:00:37.434Z,71.74
2022-12-18T05:03:05.006Z,71.89
2022-12-18T05:05:32.916Z,72.80
2022-12-18T05:08:00.808Z,72.90
2022-12-18T05:10:31.217Z,73.19
2022-12-18T05:13:03.886Z,73.33
2022-12-18T05:15:33.784Z,73.73
2022-12-18T05:18:01.688Z,73.63
2022-12-18T05:20:30.364Z,74.09
2022-12-18T05:22:58.746Z,74.31
2022-12-18T05:25:26.637Z,73.94
2022-12-18T05:27:54.286Z,74.31
2022-12-18T05:30:22.202Z,74.36
2022-12-18T05:32:49.703Z,74.16
2022-12-18T05:35:17.588Z,73.69
2022-12-18T05:37:45.497Z,73.43
2022-12-18T05:40:14.171Z,73.31
2022-12-18T05:42:41.748Z,73.53
2022-12-18T05:45:10.223Z,73.90
2022-12-18T05:47:37.877Z,74.61
2022-12-18T05:50:06.653Z,74.20
2022-12-18T05:52:34.089Z,74.88
2022-12-18T05:55:02.252Z,74.98
2022-12-18T05:57:30.091Z,75.79
2022-12-18T05:59:57.888Z,76.10
2022-12-18T06:02:25.446Z,76.25
2022-12-18T06:04:53.416Z,76.21
2022-12-18T06:07:20.990Z,75.63
2022-12-18T06:09:48.898Z,76.50
2022-12-18T06:12:16.767Z,76.39
2022-12-18T06:14:44.861Z,76.66
2022-12-18T06:17:12.402Z,76.58
2022-12-18T06:19:40.261Z,76.12
2022-12-18T06:22:07.946Z,76.38
2022-12-18T06:24:35.785Z,76.73
2022-12-18T06:27:03.420Z,77.52
2022-12-18T06:29:31.244Z,77.64
2022-12-18T06:31:58.815Z,77.96
2022-12-18T06:34:26.832Z,77.57
2022-12-18T06:36:54.292Z,78.05
2022-12-18T06:39:22.186Z,77.56
2022-12-18T06:41:49.691Z,77.73
2022-12-18T06:44:17.617Z,78.03
2022-12-18T06:46:45.120Z,77.67
2022-12-18T06:49:13.491Z,77.72
2022-12-18T06:51:41.288Z,79.00
2022-12-18T06:54:09.769Z,78.50
2022-12-18T06:56:37.242Z,78.37
2022-12-18T06:59:05.163Z,77.83
2022-12-18T07:01:32.907Z,78.09
2022-12-18T07:04:00.827Z,78.17
2022-12-18T07:06:28.408Z,78.14
2022-12-18T07:08:56.635Z,78.48
2022-12-18T07:11:24.532Z,77.84
2022-12-18T07:13:53.910Z,78.42
2022-12-18T07:16:25.366Z,78.79
2022-12-18T07:18:56.601Z,78.44
2022-12-18T07:21:25.716Z,78.29
2022-12-18T07:23:53.784Z,78.17
2022-12-18T07:26:22.997Z,78.67
2022-12-18T07:28:50.946Z,78.80
2022-12-18T07:31:22.691Z,78.13
2022-12-18T07:33:52.672Z,77.77
2022-12-18T07:36:23.637Z,79.31
2022-12-18T07:38:55.776Z,79.33
2022-12-18T07:41:23.636Z,78.56
2022-12-18T07:43:51.461Z,77.99
2022-12-18T07:46:19.643Z,77.60
2022-12-18T07:48:49.821Z,76.84
2022-12-18T07:51:19.414Z,77.38
2022-12-18T07:53:49.309Z,76.50
2022-12-18T07:56:29.038Z,76.03
2022-12-18T07:58:58.568Z,75.82
2022-12-18T08:01:26.854Z,75.94
2022-12-18T08:03:55.083Z,75.37
2022-12-18T08:06:24.197Z,75.27
2022-12-18T08:08:57.212Z,75.52
2022-12-18T08:11:27.282Z,75.73
2022-12-18T08:13:55.975Z,75.17
2022-12-18T08:16:24.123Z,74.81
2022-12-18T08:18:54.635Z,75.03
2022-12-18T08:21:27.375Z,75.58
2022-12-18T08:24:17.296Z,76.22
2022-12-18T08:27:06.684Z,75.50
2022-12-18T08:29:36.325Z,75.00
2022-12-18T08:32:04.302Z,75.50
2022-12-18T08:34:32.449Z,75.71
2022-12-18T08:37:00.988Z,74.62
2022-12-18T08:39:30.110Z,75.25
2022-12-18T08:42:16.058Z,74.46
2022-12-18T08:44:44.016Z,73.79
2022-12-18T08:47:11.598Z,73.97
2022-12-18T08:49:39.501Z,74.30
2022-12-18T08:52:07.524Z,74.67
2022-12-18T08:54:35.442Z,74.54
2022-12-18T08:57:03.266Z,74.58
2022-12-18T08:59:31.190Z,74.35
2022-12-18T09:01:58.894Z,74.38
2022-12-18T09:04:27.004Z,74.43
2022-12-18T09:06:57.533Z,73.99
2022-12-18T09:09:25.500Z,73.38
2022-12-18T09:11:53.037Z,73.98
2022-12-18T09:14:20.921Z,74.87
2022-12-18T09:16:48.621Z,74.64
2022-12-18T09:19:16.531Z,74.75
2022-12-18T09:21:47.993Z,74.79
2022-12-18T09:24:17.490Z,74.49
2022-12-18T09:26:47.119Z,74.48
2022-12-18T09:29:18.932Z,75.03
2022-12-18T09:31:47.624Z,75.06
2022-12-18T09:34:15.607Z,75.68
2022-12-18T09:36:43.407Z,75.90
2022-12-18T09:39:11.883Z,75.32
2022-12-18T09:41:58.138Z,75.12
2022-12-18T09:44:45.719Z,75.14
2022-12-18T09:47:38.776Z,76.53
2022-12-18T09:50:47.562Z,76.83
2022-12-18T09:53:23.862Z,76.17
2022-12-18T09:55:54.413Z,75.84
2022-12-18T09:58:50.289Z,76.40
2022-12-18T10:01:24.329Z,75.36
2022-12-18T10:03:53.578Z,74.39
2022-12-18T10:06:43.226Z,74.61
2022-12-18T10:09:28.817Z,74.26
2022-12-18T10:12:34.218Z,74.70
2022-12-18T10:15:25.612Z,74.65
2022-12-18T10:18:09.314Z,73.99
2022-12-18T10:20:54.132Z,75.47
2022-12-18T10:24:04.221Z,74.96
2022-12-18T10:26:34.030Z,74.49
2022-12-18T10:29:05.658Z,73.45
2022-12-18T10:31:34.095Z,73.51
2022-12-18T10:34:02.237Z,74.29
2022-12-18T10:36:30.588Z,73.36
2022-12-18T10:39:27.343Z,72.18
2022-12-18T10:42:20.843Z,72.28
2022-12-18T10:45:23.420Z,71.77
2022-12-18T10:47:51.684Z,72.83
2022-12-18T10:51:09.797Z,73.48
2022-12-18T10:53:30.914Z,73.55
2022-12-18T10:56:01.842Z,73.87
2022-12-18T10:58:34.950Z,74.97
2022-12-18T11:01:16.794Z,74.53
2022-12-18T11:04:00.418Z,72.54
2022-12-18T11:06:30.796Z,73.06
2022-12-18T11:09:19.832Z,72.74
2022-12-18T11:12:01.258Z,72.68
2022-12-18T11:14:46.773Z,71.32
2022-12-18T11:17:35.983Z,70.82
2022-12-18T11:20:36.780Z,71.41
2022-12-18T11:23:14.476Z,70.09
2022-12-18T11:25:57.711Z,68.22
2022-12-18T11:29:09.201Z,68.93
2022-12-18T11:31:36.951Z,67.58
2022-12-18T11:34:28.635Z,66.07
2022-12-18T11:37:00.644Z,66.44
2022-12-18T11:39:36.475Z,67.38
2022-12-18T11:42:23.388Z,66.28
2022-12-18T11:45:09.998Z,66.91
2022-12-18T11:47:50.926Z,67.79
2022-12-18T11:50:26.661Z,67.83
2022-12-18T11:52:57.498Z,66.87
2022-12-18T11:55:43.154Z,66.68
2022-12-18T11:58:54.651Z,67.01
2022-12-18T12:02:17.475Z,67.20
2022-12-18T12:05:57.790Z,66.69
2022-12-18T12:08:41.002Z,68.39
2022-12-18T12:12:01.793Z,67.06
2022-12-18T12:14:42.423Z,67.17
2022-12-18T12:17:57.709Z,66.57
2022-12-18T12:20:43.777Z,67.26
2022-12-18T12:23:28.328Z,66.07
2022-12-18T12:26:37.350Z,63.46
2022-12-18T12:29:49.117Z,61.12
2022-12-18T12:33:02.538Z,60.33
2022-12-18T12:36:04.786Z,60.03
2022-12-18T12:38:52.395Z,60.54
2022-12-18T12:41:45.774Z,61.45
2022-12-18T12:44:33.280Z,60.58
2022-12-18T12:47:15.667Z,61.30
2022-12-18T12:49:48.754Z,62.62
2022-12-18T12:52:43.377Z,63.75
2022-12-18T12:55:22.878Z,63.44
2022-12-18T12:58:24.496Z,63.60
2022-12-18T13:01:06.405Z,63.53
2022-12-18T13:03:57.557Z,63.10
2022-12-18T13:06:51.421Z,63.96
2022-12-18T13:09:19.497Z,63.40
2022-12-18T13:12:07.690Z,63.90
2022-12-18T13:14:41.977Z,64.97
2022-12-18T13:17:21.756Z,65.69
2022-12-18T13:20:03.403Z,66.42
2022-12-18T13:22:52.466Z,66.12
2022-12-18T13:25:37.736Z,66.46
2022-12-18T13:28:18.191Z,66.57
2022-12-18T13:30:55.547Z,66.87
2022-12-18T13:33:30.721Z,67.28
2022-12-18T13:36:23.083Z,68.37
2022-12-18T13:39:19.748Z,68.53
2022-12-18T13:42:35.098Z,67.68
2022-12-18T13:45:23.565Z,67.21
2022-12-18T13:47:51.518Z,66.67
2022-12-18T13:53:25.938Z,66.34
2022-12-18T13:55:54.033Z,66.83
2022-12-18T13:58:21.627Z,67.36
2022-12-18T14:00:50.716Z,67.47
2022-12-18T14:03:29.320Z,67.50
2022-12-18T14:06:10.027Z,67.35
2022-12-18T14:08:42.270Z,68.18
2022-12-18T14:11:26.448Z,68.15
2022-12-18T14:13:54.597Z,68.86
2022-12-18T14:16:24.006Z,68.72
2022-12-18T14:19:10.082Z,69.04
2022-12-18T14:21:50.298Z,69.30
2022-12-18T14:24:23.008Z,68.98
2022-12-18T14:26:52.313Z,68.50
2022-12-18T14:29:31.837Z,69.17
2022-12-18T14:32:19.269Z,69.85
2022-12-18T14:34:55.272Z,68.95
2022-12-18T14:37:28.041Z,69.61
2022-12-18T14:40:10.908Z,69.32
2022-12-18T14:42:42.897Z,70.14
2022-12-18T14:45:45.718Z,69.89
2022-12-18T14:48:44.165Z,70.46
2022-12-18T14:51:11.982Z,71.25
2022-12-18T14:54:10.890Z,71.29
2022-12-18T14:56:47.354Z,71.36
2022-12-18T14:59:24.978Z,71.92
2022-12-18T15:02:05.997Z,72.60
2022-12-18T15:04:45.006Z,72.74
2022-12-18T15:07:17.226Z,73.30
2022-12-18T15:10:12.018Z,74.28
2022-12-18T15:12:47.920Z,74.36
2022-12-18T15:15:34.659Z,74.26
2022-12-18T15:18:09.702Z,74.21
2022-12-18T15:20:49.635Z,74.18
2022-12-18T15:23:50.347Z,74.21
2022-12-18T15:26:21.708Z,74.52
2022-12-18T15:28:57.229Z,75.08
2022-12-18T15:31:36.415Z,75.12
2022-12-18T15:34:21.812Z,74.76
2022-12-18T15:36:51.883Z,74.82
2022-12-18T15:39:19.638Z,74.93
2022-12-18T15:42:06.147Z,75.68
2022-12-18T15:44:34.778Z,75.54
2022-12-18T15:47:02.533Z,75.90
2022-12-18T15:49:30.523Z,75.36
2022-12-18T15:52:00.972Z,75.78
2022-12-18T15:54:47.419Z,76.03
2022-12-18T15:57:24.062Z,76.22
2022-12-18T15:59:55.336Z,76.14
2022-12-18T16:02:24.027Z,76.66
2022-12-18T16:04:53.391Z,77.16
2022-12-18T16:07:25.051Z,77.17
2022-12-18T16:09:54.385Z,77.15
2022-12-18T16:12:24.873Z,77.80
2022-12-18T16:14:52.798Z,77.83
2022-12-18T16:17:21.693Z,78.36
2022-12-18T16:19:49.737Z,78.83
2022-12-18T16:22:27.784Z,78.78
2022-12-18T16:24:57.032Z,79.32
2022-12-18T16:27:25.961Z,79.66
2022-12-18T16:29:54.527Z,79.42
2022-12-18T16:32:23.709Z,80.34
2022-12-18T16:34:52.891Z,79.98
2022-12-18T16:37:20.484Z,80.29
2022-12-18T16:39:48.354Z,79.59
2022-12-18T16:42:21.161Z,79.86
2022-12-18T16:44:50.345Z,79.37
2022-12-18T16:47:18.834Z,79.08
2022-12-18T16:49:47.104Z,79.68
2022-12-18T16:52:15.029Z,79.59
2022-12-18T16:54:42.943Z,79.79
2022-12-18T16:57:17.827Z,79.67
2022-12-18T16:59:46.648Z,79.64
2022-12-18T17:02:19.077Z,79.36
2022-12-18T17:04:55.742Z,79.44
2022-12-18T17:07:24.402Z,79.20
2022-12-18T17:09:54.228Z,78.43
2022-12-18T17:12:23.055Z,78.94
2022-12-18T17:14:51.269Z,78.77
2022-12-18T17:17:21.219Z,78.76
2022-12-18T17:19:51.134Z,78.86
2022-12-18T17:22:19.736Z,79.00
2022-12-18T17:24:47.822Z,78.99
2022-12-18T17:27:15.545Z,79.44
2022-12-18T17:29:48.095Z,79.27
2022-12-18T17:32:18.504Z,79.55
2022-12-18T17:34:46.856Z,79.35
2022-12-18T17:37:15.558Z,79.63
2022-12-18T17:39:43.526Z,79.74
2022-12-18T17:42:14.590Z,79.95
2022-12-18T17:44:44.887Z,79.58
2022-12-18T17:47:14.660Z,79.48
2022-12-18T17:49:43.065Z,79.30
2022-12-18T17:52:11.093Z,79.26
2022-12-18T17:54:41.936Z,79.15
2022-12-18T17:57:09.612Z,79.66
2022-12-18T17:59:37.599Z,79.49
2022-12-18T18:02:05.257Z,79.37
2022-12-18T18:04:33.294Z,79.40
2022-12-18T18:07:00.862Z,79.64
2022-12-18T18:09:29.118Z,79.76
2022-12-18T18:12:15.743Z,79.18
2022-12-18T18:14:44.113Z,79.24
2022-12-18T18:17:11.918Z,79.72
2022-12-18T18:19:40.045Z,79.26
2022-12-18T18:22:08.095Z,79.20
2022-12-18T18:24:35.966Z,79.01
2022-12-18T18:27:03.592Z,79.02
2022-12-18T18:29:32.075Z,78.80
2022-12-18T18:32:00.241Z,78.51
2022-12-18T18:34:32.016Z,78.73
2022-12-18T18:37:02.214Z,78.87
2022-12-18T18:39:30.357Z,78.85
2022-12-18T18:41:58.181Z,78.86
2022-12-18T18:44:26.573Z,79.29
2022-12-18T18:46:59.016Z,78.85
2022-12-18T18:49:28.377Z,79.62
2022-12-18T18:51:57.590Z,79.35
2022-12-18T18:54:26.179Z,79.03
2022-12-18T18:59:42.501Z,80.24
2022-12-18T19:02:14.209Z,79.91
2022-12-18T19:04:45.829Z,79.99
2022-12-18T19:07:29.543Z,80.58
2022-12-18T19:10:04.680Z,80.37
2022-12-18T19:12:53.176Z,80.79
2022-12-18T19:15:22.977Z,80.92
2022-12-18T19:17:51.949Z,80.78
2022-12-18T19:20:20.064Z,80.99
2022-12-18T19:22:50.976Z,81.30
2022-12-18T19:25:38.381Z,82.17
2022-12-18T19:28:12.033Z,82.11
2022-12-18T19:30:58.785Z,82.02
2022-12-18T19:33:43.024Z,82.33
2022-12-18T19:36:26.195Z,82.81
2022-12-18T19:38:57.384Z,82.62
2022-12-18T19:41:29.112Z,83.38
2022-12-18T19:43:59.095Z,83.78
2022-12-18T19:46:27.120Z,83.53
2022-12-18T19:48:55.041Z,83.52
2022-12-18T19:51:27.210Z,83.94
2022-12-18T19:53:59.387Z,84.37
2022-12-18T19:56:33.356Z,83.65
2022-12-18T19:59:01.610Z,84.63
2022-12-18T20:01:30.995Z,84.44
2022-12-18T20:04:00.453Z,84.47
2022-12-18T20:06:32.660Z,84.85
2022-12-18T20:09:05.368Z,85.03
2022-12-18T20:11:41.816Z,84.67
2022-12-18T20:14:23.243Z,85.21
2022-12-18T20:16:52.650Z,85.62
2022-12-18T20:19:21.820Z,85.43
2022-12-18T20:21:49.824Z,84.92
2022-12-18T20:24:17.664Z,85.53
2022-12-18T20:26:45.850Z,85.52
2022-12-18T20:29:13.427Z,85.66
2022-12-18T20:31:41.450Z,85.27
2022-12-18T20:34:09.136Z,85.30
2022-12-18T20:36:37.747Z,85.27
2022-12-18T20:39:07.655Z,85.79
2022-12-18T20:41:39.250Z,85.84
2022-12-18T20:44:22.512Z,85.65
2022-12-18T20:46:57.865Z,86.14
2022-12-18T20:49:27.067Z,85.46
2022-12-18T20:52:10.772Z,84.97
2022-12-18T20:54:41.791Z,85.44
2022-12-18T20:57:11.743Z,85.52
2022-12-18T20:59:43.331Z,85.27
2022-12-18T21:02:16.479Z,84.63
2022-12-18T21:04:49.980Z,84.10
2022-12-18T21:07:18.596Z,84.50
2022-12-18T21:09:46.132Z,84.18
2022-12-18T21:12:40.482Z,84.44
2022-12-18T21:15:17.561Z,84.76
2022-12-18T21:17:46.255Z,85.15
2022-12-18T21:20:17.550Z,84.81
2022-12-18T21:22:49.379Z,85.40
2022-12-18T21:25:24.146Z,84.27
2022-12-18T21:27:57.725Z,84.87
2022-12-18T21:30:39.065Z,84.66
2022-12-18T21:33:06.973Z,85.17
2022-12-18T21:35:34.536Z,85.15
2022-12-18T21:38:02.694Z,84.88
2022-12-18T21:40:39.766Z,84.31
2022-12-18T21:43:28.560Z,84.72
2022-12-18T21:45:56.261Z,84.33
2022-12-18T21:48:25.402Z,84.78
2022-12-18T21:50:52.975Z,84.85
2022-12-18T21:53:20.981Z,84.47
2022-12-18T21:55:58.933Z,84.53
2022-12-18T21:58:27.335Z,84.78
2022-12-18T22:00:55.518Z,84.70
2022-12-18T22:03:24.255Z,84.82
2022-12-18T22:06:03.500Z,85.38
2022-12-18T22:08:42.252Z,84.90
2022-12-18T22:11:14.466Z,84.98
2022-12-18T22:13:47.239Z,85.44
2022-12-18T22:16:27.961Z,85.52
2022-12-18T22:18:58.294Z,85.53
2022-12-18T22:21:36.301Z,85.02
2022-12-18T22:24:19.612Z,84.43
2022-12-18T22:26:48.339Z,84.66
2022-12-18T22:29:39.398Z,84.84
2022-12-18T22:32:10.727Z,85.08
2022-12-18T22:34:40.504Z,84.20
2022-12-18T22:37:12.984Z,84.75
2022-12-18T22:39:40.940Z,84.37
2022-12-18T22:42:08.880Z,84.54
2022-12-18T22:44:37.186Z,84.67
2022-12-18T22:47:06.904Z,84.56
2022-12-18T22:49:36.682Z,84.92
2022-12-18T22:52:06.317Z,83.96
2022-12-18T22:54:34.507Z,83.42
2022-12-18T22:57:02.157Z,83.91
2022-12-18T22:59:31.067Z,84.39
2022-12-18T23:01:59.587Z,84.62
2022-12-18T23:04:30.613Z,84.05
2022-12-18T23:07:05.987Z,84.48
2022-12-18T23:09:34.561Z,84.03
2022-12-18T23:12:02.868Z,84.08
2022-12-18T23:14:31.969Z,84.53
2022-12-18T23:16:59.672Z,84.44
2022-12-18T23:19:27.869Z,84.24
2022-12-18T23:21:58.272Z,84.47
2022-12-18T23:24:26.619Z,84.29
2022-12-18T23:26:54.307Z,83.87
2022-12-18T23:29:22.325Z,84.13
2022-12-18T23:31:49.977Z,84.04
2022-12-18T23:34:18.084Z,83.91
2022-12-18T23:36:46.959Z,84.61
2022-12-18T23:39:28.608Z,84.88
2022-12-18T23:42:01.604Z,84.63
2022-12-18T23:44:30.541Z,84.54
2022-12-18T23:46:58.192Z,84.76
2022-12-18T23:49:26.246Z,84.06
2022-12-18T23:51:55.266Z,84.53
2022-12-18T23:54:32.717Z,84.27
2022-12-18T23:57:01.666Z,84.96
2022-12-18T23:59:29.794Z,84.93
